createdAt,value
2023-01-25T00:02:13.193Z,17.38
2023-01-25T00:04:39.673Z,18.35
2023-01-25T00:07:08.396Z,18.98
2023-01-25T00:09:35.011Z,18.73
2023-01-25T00:12:04.037Z,19.25
2023-01-25T00:14:30.544Z,20.48
2023-01-25T00:16:57.024Z,21.10
2023-01-25T00:19:24.008Z,23.88
2023-01-25T00:21:50.458Z,21.92
2023-01-25T00:24:17.021Z,23.17
2023-01-25T00:26:46.404Z,22.88
2023-01-25T00:29:14.407Z,24.02
2023-01-25T00:31:58.830Z,22.13
2023-01-25T00:34:25.374Z,24.60
2023-01-25T00:36:55.281Z,22.00
2023-01-25T00:39:21.748Z,22.30
2023-01-25T00:41:48.294Z,21.20
2023-01-25T00:44:14.953Z,20.33
2023-01-25T00:46:43.690Z,21.80
2023-01-25T00:49:27.622Z,20.73
2023-01-25T00:54:22.933Z,20.52
2023-01-25T00:56:49.918Z,20.33
2023-01-25T00:59:16.353Z,19.13
2023-01-25T01:01:45.839Z,20.70
2023-01-25T01:04:12.324Z,20.45
2023-01-25T01:06:42.291Z,20.45
2023-01-25T01:09:14.079Z,20.17
2023-01-25T01:11:40.665Z,20.25
2023-01-25T01:14:07.369Z,19.40
2023-01-25T01:16:34.930Z,19.27
2023-01-25T01:19:01.435Z,20.23
2023-01-25T01:21:28.222Z,19.15
2023-01-25T01:23:57.785Z,20.17
2023-01-25T01:26:24.488Z,19.25
2023-01-25T01:28:50.906Z,18.75
2023-01-25T01:31:20.856Z,20.08
2023-01-25T01:33:52.128Z,20.77
2023-01-25T01:36:20.945Z,19.58
2023-01-25T01:38:47.451Z,18.33
2023-01-25T01:41:15.645Z,19.65
2023-01-25T01:43:43.003Z,19.48
2023-01-25T01:46:34.414Z,18.23
2023-01-25T01:49:14.282Z,19.13
2023-01-25T01:51:47.383Z,19.77
2023-01-25T01:54:16.868Z,19.23
2023-01-25T01:57:00.263Z,18.67
2023-01-25T01:59:34.701Z,18.58
2023-01-25T02:02:01.242Z,17.90
2023-01-25T02:04:28.480Z,19.30
2023-01-25T02:07:02.600Z,18.73
2023-01-25T02:09:31.569Z,19.02
2023-01-25T02:11:59.798Z,18.23
2023-01-25T02:14:31.488Z,18.73
2023-01-25T02:16:58.481Z,19.83
2023-01-25T02:19:44.171Z,19.50
2023-01-25T02:22:16.503Z,18.17
2023-01-25T02:24:50.820Z,17.27
2023-01-25T02:27:17.970Z,17.45
2023-01-25T02:29:47.385Z,16.05
2023-01-25T02:32:14.295Z,14.15
2023-01-25T02:34:40.777Z,13.52
2023-01-25T02:37:12.514Z,14.15
2023-01-25T02:39:38.961Z,14.90
2023-01-25T02:42:05.516Z,16.35
2023-01-25T02:44:35.021Z,15.23
2023-01-25T02:47:01.487Z,14.68
2023-01-25T02:49:28.002Z,14.40
2023-01-25T02:51:58.397Z,14.65
2023-01-25T02:54:26.749Z,14.45
2023-01-25T02:56:53.490Z,15.65
2023-01-25T02:59:20.004Z,16.13
2023-01-25T03:01:47.056Z,15.35
2023-01-25T03:04:13.645Z,16.40
2023-01-25T03:06:42.641Z,14.95
2023-01-25T03:09:10.592Z,15.18
2023-01-25T03:11:37.354Z,14.57
2023-01-25T03:14:03.882Z,14.73
2023-01-25T03:16:34.228Z,15.00
2023-01-25T03:19:02.978Z,16.05
2023-01-25T03:21:29.513Z,16.48
2023-01-25T03:23:59.156Z,16.08
2023-01-25T03:26:26.786Z,15.68
2023-01-25T03:28:55.804Z,14.60
2023-01-25T03:31:22.627Z,15.00
2023-01-25T03:33:49.814Z,15.95
2023-01-25T03:36:16.462Z,17.05
2023-01-25T03:38:43.160Z,16.33
2023-01-25T03:41:09.605Z,17.15
2023-01-25T03:43:36.020Z,17.40
2023-01-25T03:46:02.548Z,16.75
2023-01-25T03:48:29.468Z,17.27
2023-01-25T03:50:59.216Z,16.73
2023-01-25T03:53:30.773Z,17.10
2023-01-25T03:56:01.806Z,15.90
2023-01-25T03:58:30.876Z,15.88
2023-01-25T04:00:59.945Z,16.08
2023-01-25T04:03:27.239Z,16.95
2023-01-25T04:05:56.089Z,15.98
2023-01-25T04:08:23.167Z,16.77
2023-01-25T04:10:57.683Z,17.30
2023-01-25T04:13:25.225Z,17.58
2023-01-25T04:15:51.809Z,17.38
2023-01-25T04:18:19.093Z,17.77
2023-01-25T04:20:46.052Z,17.50
2023-01-25T04:23:12.870Z,17.88
2023-01-25T04:25:39.619Z,17.02
2023-01-25T04:28:06.133Z,18.48
2023-01-25T04:30:33.754Z,17.85
2023-01-25T04:33:04.799Z,17.48
2023-01-25T04:35:33.624Z,17.08
2023-01-25T04:38:00.509Z,18.13
2023-01-25T04:40:27.748Z,17.95
2023-01-25T04:42:54.454Z,18.05
2023-01-25T04:45:23.704Z,18.83
2023-01-25T04:47:50.585Z,18.42
2023-01-25T04:50:17.112Z,19.35
2023-01-25T04:52:43.550Z,19.83
2023-01-25T04:55:14.773Z,19.27
2023-01-25T04:57:41.311Z,19.60
2023-01-25T05:00:08.810Z,18.40
2023-01-25T05:02:35.397Z,18.67
2023-01-25T05:05:02.554Z,19.02
2023-01-25T05:07:29.091Z,18.70
2023-01-25T05:09:55.573Z,19.13
2023-01-25T05:12:24.300Z,18.17
2023-01-25T05:14:50.750Z,18.00
2023-01-25T05:17:17.256Z,18.77
2023-01-25T05:19:43.723Z,19.00
2023-01-25T05:22:15.221Z,19.13
2023-01-25T05:24:41.939Z,19.40
2023-01-25T05:27:09.712Z,21.10
2023-01-25T05:29:38.009Z,21.48
2023-01-25T05:32:07.453Z,20.15
2023-01-25T05:34:35.032Z,20.73
2023-01-25T05:37:02.770Z,19.90
2023-01-25T05:39:29.515Z,21.42
2023-01-25T05:41:56.079Z,22.77
2023-01-25T05:44:23.106Z,22.70
2023-01-25T05:46:50.302Z,22.92
2023-01-25T05:49:18.064Z,21.13
2023-01-25T05:51:45.510Z,22.13
2023-01-25T05:54:14.897Z,21.92
2023-01-25T05:56:41.516Z,22.90
2023-01-25T05:59:07.960Z,23.48
2023-01-25T06:01:34.377Z,22.40
2023-01-25T06:04:01.412Z,22.35
2023-01-25T06:06:28.264Z,22.45
2023-01-25T06:08:54.695Z,22.33
2023-01-25T06:11:23.966Z,23.45
2023-01-25T06:13:51.335Z,22.05
2023-01-25T06:16:18.873Z,22.55
2023-01-25T06:18:45.514Z,21.98
2023-01-25T06:21:12.264Z,23.20
2023-01-25T06:23:38.743Z,22.88
2023-01-25T06:26:08.003Z,23.15
2023-01-25T06:28:38.811Z,22.17
2023-01-25T06:31:18.602Z,22.88
2023-01-25T06:33:49.553Z,21.95
2023-01-25T06:36:18.619Z,21.70
2023-01-25T06:38:50.737Z,22.42
2023-01-25T06:41:18.374Z,22.05
2023-01-25T06:43:45.538Z,22.58
2023-01-25T06:46:12.663Z,18.85
2023-01-25T06:48:40.173Z,19.60
2023-01-25T06:51:08.964Z,19.75
2023-01-25T06:53:38.473Z,20.27
2023-01-25T06:56:10.684Z,19.10
2023-01-25T06:58:37.807Z,20.30
2023-01-25T07:01:07.610Z,26.77
2023-01-25T07:03:36.949Z,21.02
2023-01-25T07:06:06.288Z,17.90
2023-01-25T07:08:33.838Z,18.52
2023-01-25T07:11:03.312Z,19.30
2023-01-25T07:13:31.061Z,19.58
2023-01-25T07:16:00.149Z,20.50
2023-01-25T07:18:28.005Z,18.67
2023-01-25T07:20:54.471Z,18.98
2023-01-25T07:23:21.006Z,18.88
2023-01-25T07:25:49.333Z,18.25
2023-01-25T07:28:16.944Z,18.73
2023-01-25T07:30:46.267Z,18.88
2023-01-25T07:33:12.787Z,18.40
2023-01-25T07:35:39.336Z,18.77
2023-01-25T07:38:05.984Z,19.23
2023-01-25T07:40:32.476Z,23.20
2023-01-25T07:42:59.021Z,20.30
2023-01-25T07:45:30.195Z,25.27
2023-01-25T07:47:58.870Z,22.88
2023-01-25T07:50:27.001Z,19.25
2023-01-25T07:52:54.246Z,18.75
2023-01-25T07:55:21.849Z,19.90
2023-01-25T07:57:48.459Z,18.85
2023-01-25T08:00:15.183Z,19.00
2023-01-25T08:02:41.740Z,18.70
2023-01-25T08:05:08.965Z,18.88
2023-01-25T08:07:35.647Z,19.08
2023-01-25T08:10:02.149Z,19.50
2023-01-25T08:12:28.800Z,18.70
2023-01-25T08:14:55.362Z,18.15
2023-01-25T08:17:22.084Z,17.92
2023-01-25T08:19:48.608Z,17.92
2023-01-25T08:22:15.094Z,17.35
2023-01-25T08:24:41.569Z,17.77
2023-01-25T08:27:08.003Z,17.85
2023-01-25T08:29:34.700Z,18.15
2023-01-25T08:32:04.352Z,18.08
2023-01-25T08:34:32.355Z,17.02
2023-01-25T08:36:58.926Z,17.02
2023-01-25T08:39:25.827Z,18.38
2023-01-25T08:41:52.467Z,16.83
2023-01-25T08:44:24.021Z,18.10
2023-01-25T08:46:50.572Z,17.17
2023-01-25T08:49:17.085Z,18.10
2023-01-25T08:51:43.610Z,17.63
2023-01-25T08:54:12.499Z,18.02
2023-01-25T08:56:42.508Z,16.77
2023-01-25T08:59:13.254Z,16.48
2023-01-25T09:01:39.783Z,17.23
2023-01-25T09:04:06.220Z,17.50
2023-01-25T09:06:33.146Z,16.30
2023-01-25T09:09:02.250Z,15.90
2023-01-25T09:11:28.904Z,16.73
2023-01-25T09:13:55.416Z,18.27
2023-01-25T09:16:30.988Z,18.60
2023-01-25T09:19:00.390Z,18.15
2023-01-25T09:21:30.239Z,18.67
2023-01-25T09:24:05.865Z,19.17
2023-01-25T09:26:36.370Z,18.50
2023-01-25T09:29:07.681Z,19.10
2023-01-25T09:31:34.453Z,19.48
2023-01-25T09:34:01.173Z,19.88
2023-01-25T09:36:27.694Z,20.70
2023-01-25T09:38:55.382Z,20.70
2023-01-25T09:41:43.454Z,20.90
2023-01-25T09:44:47.905Z,20.20
2023-01-25T09:50:05.300Z,21.85
2023-01-25T09:52:50.806Z,20.98
2023-01-25T09:55:24.335Z,20.92
2023-01-25T09:57:54.025Z,21.77
2023-01-25T10:00:31.874Z,21.83
2023-01-25T10:03:23.333Z,20.85
2023-01-25T10:05:53.522Z,21.33
2023-01-25T10:08:25.930Z,21.30
2023-01-25T10:11:00.204Z,21.27
2023-01-25T10:13:31.750Z,21.67
2023-01-25T10:16:25.631Z,21.70
2023-01-25T10:19:26.907Z,21.70
2023-01-25T10:22:29.903Z,20.88
2023-01-25T10:25:44.317Z,22.02
2023-01-25T10:28:39.642Z,21.90
2023-01-25T10:31:14.773Z,21.33
2023-01-25T10:33:46.284Z,20.40
2023-01-25T10:36:27.224Z,20.52
2023-01-25T10:38:59.196Z,21.48
2023-01-25T10:41:41.343Z,21.52
2023-01-25T10:44:24.592Z,20.65
2023-01-25T10:47:05.150Z,21.92
2023-01-25T10:49:46.258Z,21.35
2023-01-25T10:52:22.222Z,21.63
2023-01-25T10:55:04.571Z,21.80
2023-01-25T10:57:31.236Z,21.20
2023-01-25T11:00:00.660Z,23.17
2023-01-25T11:02:41.646Z,23.70
2023-01-25T11:05:30.774Z,23.30
2023-01-25T11:07:58.706Z,22.23
2023-01-25T11:10:37.322Z,22.83
2023-01-25T11:13:16.109Z,21.80
2023-01-25T11:15:48.583Z,22.05
2023-01-25T11:18:15.063Z,21.98
2023-01-25T11:20:41.529Z,22.98
2023-01-25T11:23:24.010Z,22.02
2023-01-25T11:25:51.392Z,22.25
2023-01-25T11:28:20.102Z,24.27
2023-01-25T11:30:47.582Z,25.30
2023-01-25T11:33:16.670Z,23.83
2023-01-25T11:36:02.960Z,22.55
2023-01-25T11:38:29.707Z,24.67
2023-01-25T11:41:08.845Z,23.20
2023-01-25T11:43:56.955Z,24.05
2023-01-25T11:46:51.259Z,21.83
2023-01-25T11:49:44.325Z,22.58
2023-01-25T11:52:31.818Z,23.00
2023-01-25T11:55:24.409Z,23.63
2023-01-25T11:58:18.919Z,23.77
2023-01-25T12:01:17.603Z,22.75
2023-01-25T12:04:18.310Z,22.85
2023-01-25T12:07:03.919Z,21.70
2023-01-25T12:09:53.685Z,21.40
2023-01-25T12:12:42.872Z,22.02
2023-01-25T12:15:15.559Z,22.08
2023-01-25T12:18:19.695Z,22.30
2023-01-25T12:21:08.274Z,22.52
2023-01-25T12:23:47.398Z,22.58
2023-01-25T12:26:29.790Z,21.98
2023-01-25T12:29:26.276Z,22.75
2023-01-25T12:32:02.920Z,21.45
2023-01-25T12:34:44.113Z,21.50
2023-01-25T12:37:28.405Z,22.33
2023-01-25T12:40:00.518Z,21.60
2023-01-25T12:42:37.638Z,21.20
2023-01-25T12:45:17.925Z,20.02
2023-01-25T12:47:49.271Z,20.85
2023-01-25T12:50:35.011Z,19.95
2023-01-25T12:53:13.590Z,21.60
2023-01-25T12:55:40.733Z,20.20
2023-01-25T12:58:14.111Z,20.73
2023-01-25T13:00:53.673Z,19.85
2023-01-25T13:03:55.764Z,20.75
2023-01-25T13:06:34.453Z,20.00
2023-01-25T13:09:25.251Z,21.25
2023-01-25T13:11:52.022Z,20.63
2023-01-25T13:14:18.730Z,21.30
2023-01-25T13:17:08.472Z,20.33
2023-01-25T13:19:36.436Z,21.67
2023-01-25T13:22:03.773Z,22.13
2023-01-25T13:24:32.461Z,22.45
2023-01-25T13:27:03.899Z,20.42
2023-01-25T13:29:39.647Z,18.88
2023-01-25T13:32:13.478Z,20.15
2023-01-25T13:34:44.115Z,19.85
2023-01-25T13:37:23.002Z,19.40
2023-01-25T13:39:49.455Z,18.70
2023-01-25T13:42:24.254Z,18.85
2023-01-25T13:44:53.971Z,18.35
2023-01-25T13:47:24.082Z,19.77
2023-01-25T13:50:13.003Z,19.67
2023-01-25T13:52:39.768Z,19.10
2023-01-25T13:55:18.194Z,21.38
2023-01-25T13:57:44.718Z,22.20
2023-01-25T14:00:16.785Z,23.67
2023-01-25T14:02:47.204Z,22.27
2023-01-25T14:05:21.354Z,23.48
2023-01-25T14:07:50.963Z,24.67
2023-01-25T14:10:24.243Z,23.10
2023-01-25T14:12:53.891Z,22.23
2023-01-25T14:15:34.417Z,23.42
2023-01-25T14:18:10.523Z,22.85
2023-01-25T14:20:37.176Z,23.25
2023-01-25T14:23:05.715Z,21.98
2023-01-25T14:25:33.517Z,23.40
2023-01-25T14:28:02.421Z,23.95
2023-01-25T14:30:34.901Z,24.70
2023-01-25T14:33:03.977Z,22.75
2023-01-25T14:35:42.307Z,22.98
2023-01-25T14:38:35.431Z,25.75
2023-01-25T14:41:14.432Z,26.10
2023-01-25T14:43:53.588Z,25.45
2023-01-25T14:46:21.468Z,24.90
2023-01-25T14:48:48.075Z,26.52
2023-01-25T14:51:26.062Z,28.02
2023-01-25T14:54:01.444Z,26.20
2023-01-25T14:56:30.568Z,26.02
2023-01-25T14:59:00.572Z,25.55
2023-01-25T15:01:39.813Z,24.65
2023-01-25T15:04:12.483Z,26.27
2023-01-25T15:06:50.816Z,26.27
2023-01-25T15:09:30.950Z,29.63
2023-01-25T15:12:27.953Z,25.83
2023-01-25T15:14:57.481Z,26.33
2023-01-25T15:17:56.681Z,27.00
2023-01-25T15:20:28.119Z,30.05
2023-01-25T15:22:57.650Z,29.33
2023-01-25T15:25:24.624Z,29.73
2023-01-25T15:27:51.633Z,35.35
2023-01-25T15:30:18.885Z,30.67
2023-01-25T15:32:46.021Z,28.23
2023-01-25T15:35:21.682Z,28.60
2023-01-25T15:37:49.538Z,28.00
2023-01-25T15:40:17.110Z,25.10
2023-01-25T15:42:45.947Z,24.95
2023-01-25T15:45:12.461Z,25.67
2023-01-25T15:47:39.571Z,24.38
2023-01-25T15:50:07.071Z,28.45
2023-01-25T15:52:33.599Z,25.90
2023-01-25T15:55:02.194Z,28.35
2023-01-25T15:57:32.963Z,25.65
2023-01-25T16:00:06.617Z,23.60
2023-01-25T16:02:33.183Z,24.48
2023-01-25T16:05:02.142Z,25.42
2023-01-25T16:07:31.980Z,24.20
2023-01-25T16:09:58.482Z,23.85
2023-01-25T16:12:25.621Z,24.70
2023-01-25T16:14:52.080Z,28.05
2023-01-25T16:17:20.374Z,23.30
2023-01-25T16:19:47.865Z,22.08
2023-01-25T16:22:15.537Z,30.90
2023-01-25T16:24:43.512Z,27.02
2023-01-25T16:27:25.580Z,32.33
2023-01-25T16:29:53.033Z,37.58
2023-01-25T16:32:19.650Z,39.92
2023-01-25T16:34:46.249Z,27.00
2023-01-25T16:37:17.134Z,31.45
2023-01-25T16:39:43.622Z,38.67
2023-01-25T16:42:10.896Z,29.02
2023-01-25T16:44:38.046Z,26.90
2023-01-25T16:47:05.310Z,27.48
2023-01-25T16:49:33.420Z,28.13
2023-01-25T16:52:02.613Z,25.23
2023-01-25T16:54:29.104Z,25.10
2023-01-25T16:56:55.611Z,27.73
2023-01-25T16:59:23.147Z,26.50
2023-01-25T17:01:49.925Z,23.95
2023-01-25T17:04:16.983Z,23.95
2023-01-25T17:06:47.082Z,26.95
2023-01-25T17:09:24.607Z,24.83
2023-01-25T17:11:52.414Z,25.17
2023-01-25T17:14:19.530Z,24.20
2023-01-25T17:16:48.235Z,24.80
2023-01-25T17:19:16.227Z,25.40
2023-01-25T17:21:43.197Z,26.67
2023-01-25T17:24:13.387Z,27.42
2023-01-25T17:26:40.761Z,24.90
2023-01-25T17:29:10.096Z,24.10
2023-01-25T17:31:37.378Z,21.20
2023-01-25T17:34:07.123Z,22.65
2023-01-25T17:36:34.245Z,22.02
2023-01-25T17:39:08.206Z,20.60
2023-01-25T17:41:34.874Z,35.90
2023-01-25T17:44:01.482Z,22.90
2023-01-25T17:46:32.904Z,21.80
2023-01-25T17:49:01.087Z,20.85
2023-01-25T17:51:28.228Z,20.58
2023-01-25T17:53:54.990Z,19.58
2023-01-25T17:56:21.525Z,19.90
2023-01-25T17:58:48.077Z,21.83
2023-01-25T18:01:23.908Z,19.13
2023-01-25T18:03:52.307Z,24.17
2023-01-25T18:06:21.729Z,23.02
2023-01-25T18:08:50.403Z,22.05
2023-01-25T18:11:23.161Z,21.25
2023-01-25T18:13:52.001Z,19.10
2023-01-25T18:16:23.507Z,20.02
2023-01-25T18:18:52.463Z,21.75
2023-01-25T18:21:25.539Z,26.73
2023-01-25T18:23:57.600Z,20.48
2023-01-25T18:26:27.070Z,22.60
2023-01-25T18:28:59.578Z,20.17
2023-01-25T18:31:26.534Z,19.58
2023-01-25T18:33:53.165Z,20.20
2023-01-25T18:36:20.431Z,19.25
2023-01-25T18:38:46.906Z,19.17
2023-01-25T18:41:13.443Z,19.95
2023-01-25T18:43:39.974Z,19.77
2023-01-25T18:46:06.659Z,20.40
2023-01-25T18:48:33.501Z,18.80
2023-01-25T18:51:11.235Z,19.90
2023-01-25T18:53:41.471Z,19.20
2023-01-25T18:56:16.682Z,19.70
2023-01-25T18:58:43.974Z,19.75
2023-01-25T19:01:19.856Z,22.60
2023-01-25T19:03:47.806Z,20.23
2023-01-25T19:06:15.023Z,18.27
2023-01-25T19:08:44.136Z,17.80
2023-01-25T19:11:13.935Z,18.48
2023-01-25T19:13:41.648Z,17.25
2023-01-25T19:16:13.921Z,17.15
2023-01-25T19:18:52.061Z,20.75
2023-01-25T19:21:21.556Z,24.83
2023-01-25T19:23:48.485Z,22.35
2023-01-25T19:26:17.718Z,18.58
2023-01-25T19:28:45.290Z,18.20
2023-01-25T19:31:13.792Z,17.63
2023-01-25T19:33:40.869Z,16.98
2023-01-25T19:36:12.939Z,15.93
2023-01-25T19:38:41.925Z,17.75
2023-01-25T19:41:13.727Z,17.60
2023-01-25T19:43:43.778Z,18.30
2023-01-25T19:46:16.219Z,17.55
2023-01-25T19:48:43.994Z,18.20
2023-01-25T19:51:14.764Z,18.23
2023-01-25T19:53:46.397Z,17.48
2023-01-25T19:56:17.711Z,16.98
2023-01-25T19:58:45.918Z,17.10
2023-01-25T20:01:19.205Z,16.83
2023-01-25T20:03:46.042Z,16.25
2023-01-25T20:06:14.178Z,16.90
2023-01-25T20:08:42.929Z,16.92
2023-01-25T20:11:21.595Z,17.48
2023-01-25T20:13:50.436Z,17.60
2023-01-25T20:16:17.724Z,16.45
2023-01-25T20:18:48.452Z,15.95
2023-01-25T20:21:17.746Z,15.15
2023-01-25T20:23:46.247Z,14.80
2023-01-25T20:26:18.570Z,16.20
2023-01-25T20:28:47.738Z,15.98
2023-01-25T20:31:24.781Z,16.95
2023-01-25T20:33:55.486Z,18.80
2023-01-25T20:36:22.639Z,18.23
2023-01-25T20:38:49.128Z,17.00
2023-01-25T20:41:17.362Z,17.30
2023-01-25T20:44:02.049Z,17.13
2023-01-25T20:46:33.955Z,16.58
2023-01-25T20:49:02.167Z,21.63
2023-01-25T20:51:29.513Z,18.17
2023-01-25T20:53:56.856Z,16.77
2023-01-25T20:56:23.947Z,16.98
2023-01-25T20:58:51.371Z,17.63
2023-01-25T21:01:22.418Z,17.27
2023-01-25T21:03:49.827Z,16.52
2023-01-25T21:06:17.373Z,17.15
2023-01-25T21:08:46.320Z,15.77
2023-01-25T21:11:15.804Z,16.02
2023-01-25T21:13:42.389Z,16.38
2023-01-25T21:16:21.569Z,17.95
2023-01-25T21:18:57.464Z,17.63
2023-01-25T21:21:29.219Z,16.88
2023-01-25T21:24:02.670Z,17.33
2023-01-25T21:26:32.115Z,17.35
2023-01-25T21:29:00.217Z,16.77
2023-01-25T21:31:29.069Z,16.88
2023-01-25T21:33:57.934Z,17.23
2023-01-25T21:36:27.232Z,16.85
2023-01-25T21:38:55.118Z,16.42
2023-01-25T21:41:25.731Z,17.55
2023-01-25T21:44:12.913Z,17.65
2023-01-25T21:46:40.089Z,18.15
2023-01-25T21:49:27.323Z,17.63
2023-01-25T21:51:59.196Z,18.42
2023-01-25T21:54:27.219Z,18.67
2023-01-25T21:56:56.543Z,18.52
2023-01-25T21:59:23.882Z,18.95
2023-01-25T22:01:51.575Z,19.90
2023-01-25T22:04:19.798Z,19.30
2023-01-25T22:06:49.085Z,17.92
2023-01-25T22:09:15.720Z,20.05
2023-01-25T22:11:42.435Z,17.88
2023-01-25T22:14:09.023Z,18.75
2023-01-25T22:16:35.491Z,20.40
2023-01-25T22:19:01.976Z,18.98
2023-01-25T22:21:32.069Z,19.50
2023-01-25T22:24:04.322Z,19.15
2023-01-25T22:26:42.888Z,20.05
2023-01-25T22:29:09.439Z,19.73
2023-01-25T22:31:36.066Z,19.20
2023-01-25T22:34:02.757Z,18.00
2023-01-25T22:36:33.041Z,20.25
2023-01-25T22:39:02.223Z,24.58
2023-01-25T22:41:31.282Z,22.23
2023-01-25T22:44:01.149Z,30.58
2023-01-25T22:46:29.225Z,19.48
2023-01-25T22:48:57.337Z,18.30
2023-01-25T22:51:29.371Z,19.55
2023-01-25T22:53:57.655Z,26.98
2023-01-25T22:56:27.404Z,34.35
2023-01-25T22:58:54.533Z,35.25
2023-01-25T23:01:23.872Z,26.63
2023-01-25T23:03:51.322Z,18.73
2023-01-25T23:06:28.742Z,17.10
2023-01-25T23:09:03.230Z,22.05
2023-01-25T23:11:35.287Z,24.75
2023-01-25T23:14:23.143Z,27.70
2023-01-25T23:16:49.746Z,21.90
2023-01-25T23:19:16.360Z,23.60
2023-01-25T23:21:42.872Z,23.83
2023-01-25T23:24:10.437Z,17.80
2023-01-25T23:26:38.069Z,19.75
2023-01-25T23:29:10.898Z,19.20
2023-01-25T23:31:37.967Z,18.17
2023-01-25T23:34:11.169Z,17.35
2023-01-25T23:36:38.828Z,16.90
2023-01-25T23:39:07.588Z,17.88
2023-01-25T23:41:34.210Z,16.75
2023-01-25T23:44:02.000Z,18.67
2023-01-25T23:46:30.190Z,16.45
2023-01-25T23:48:56.803Z,19.33
2023-01-25T23:51:23.319Z,19.25
2023-01-25T23:53:49.796Z,16.48
2023-01-25T23:56:18.515Z,17.52
2023-01-25T23:58:47.997Z,16.00
